Grantsdale, Montana
Current Conditions -  °F | °C
As of 11:53 AM on Sunday 21 Dec 2014 (Local Time) from KMSO Reporting Station
Overcast Overcast  
Wind Chill: 32°   Ceiling: 7000
Heat Index: 40°   Visibility: 10mi
Dew Point: 35°   Wind: 15mph
Humidity: 83%   Direction: 330°NNW
Pressure: 29.69"   Gusts: NA
Location:  46.2°N, 114.13°W
Report Text: KMSO 211853Z 33013KT 10SM FEW050 OVC070 04/02 A2969 RMK AO2 RAB09E48 SLP072 P0003 T00440017 $
Loading
Personal Weather Stations






























Interactive Weather Map New forecast layout! Learn more

10-Day Weather Forecast

Advertisements
Track Severe Weather on mobile